Flight Track Log - Related Links

Times and Time Zones

All times are in EDT time to prevent confusion due to time zone crossing. See the JZA8618 flight status page for this flight to view local times or setup timezone preferences in your user account.

Time Position Orientation Groundspeed Altitude Reporting Facility
EDT Latitude Longitude Course Direction KTS MPH feet Rate Location/Type
Tue 06:31:14 AM 33.6500 -84.5000 11° North 207 238 3,200  Level Atlanta TRACON
Tue 06:32:26 AM 33.6667 -84.5833 284° West 237 273 6,300 2,227 Climbing Atlanta TRACON
Tue 06:33:00 AM 33.9391 -84.2667 North  Level FlightAware Approximate
Tue 06:33:26 AM 33.7500 -84.5667 North 295 339 8,100  Level Atlanta TRACON
Tue 06:34:00 AM 34.0641 -84.2667 North  Level FlightAware Approximate
Tue 06:35:00 AM 34.1890 -84.2667 North  Level FlightAware Approximate
Tue 06:35:44 AM 33.9208 -84.4744 24° Northeast 312 359 12,100  Level Atlanta Center
Tue 06:36:00 AM 34.3134 -84.2595 11° North  Level FlightAware Approximate
Tue 06:36:44 AM 34.0211 -84.4222 23° Northeast 363 418 13,600  Level Atlanta Center
Tue 06:37:44 AM 34.1153 -84.3700 25° Northeast 370 426 15,800 1,950 Climbing Atlanta Center
Tue 06:38:44 AM 34.2239 -84.3150 23° Northeast 396 456 17,500 1,550 Climbing Atlanta Center
Tue 06:39:44 AM 34.3347 -84.2728 17° North 406 467 18,900 1,550 Climbing Atlanta Center
Tue 06:40:44 AM 34.4619 -84.2403 12° North 411 473 20,600 1,550 Climbing Atlanta Center
Tue 06:41:44 AM 34.5808 -84.2128 11° North 424 488 22,000 1,650 Climbing Atlanta Center
Tue 06:42:44 AM 34.6978 -84.1853 11° North 432 497 23,900 1,900 Climbing Atlanta Center
Tue 06:43:44 AM 34.8147 -84.1603 10° North 426 490 25,800 1,350 Climbing Atlanta Center
Tue 06:44:44 AM 34.9336 -84.1300 12° North 426 490 26,600 600 Climbing Atlanta Center
Tue 06:45:44 AM 35.0589 -84.0997 11° North 438 504 27,000 800 Climbing Atlanta Center
Tue 06:46:44 AM 35.1883 -84.0692 11° North 458 527 28,200 1,250 Climbing Atlanta Center
Tue 06:47:44 AM 35.3178 -84.0389 11° North 465 535 29,500 1,500 Climbing Atlanta Center
Tue 06:48:44 AM 35.4450 -84.0056 12° North 465 535 31,200 1,550 Climbing Atlanta Center
Tue 06:49:44 AM 35.5658 -83.9800 10° North 458 527 32,600 1,300 Climbing Atlanta Center
Tue 06:50:44 AM 35.6869 -83.9492 12° North 448 516 33,800 1,000 Climbing Atlanta Center
Tue 06:51:44 AM 35.8078 -83.9183 12° North 443 510 34,600 1,600 Climbing Atlanta Center
Tue 06:52:44 AM 35.9267 -83.8822 14° North 443 510 37,000 1,200 Climbing Atlanta Center
Tue 06:53:44 AM 36.0289 -83.8181 27° Northeast 429 494 37,000  Level Atlanta Center
Tue 06:54:50 AM 36.1281 -83.7522 28° Northeast 424 488 37,000 -47 Level Indianapolis Center
Tue 06:55:51 AM 36.2533 -83.6733 27° Northeast 422 486 36,900  Descending Indianapolis Center
Tue 06:56:52 AM 36.3578 -83.6064 27° Northeast 422 486 37,000 49 Climbing Indianapolis Center
Tue 06:57:53 AM 36.4622 -83.5400 27° Northeast 422 486 37,000  Level Indianapolis Center
Tue 06:58:54 AM 36.5583 -83.4806 26° Northeast 426 490 37,000  Level Indianapolis Center
Tue 06:59:54 AM 36.6614 -83.4064 30° Northeast 427 491 37,000  Level Indianapolis Center
Tue 07:00:55 AM 36.7567 -83.3158 37° Northeast 427 491 37,000  Level Indianapolis Center
Tue 07:01:56 AM 36.8528 -83.2258 37° Northeast 428 493 37,000  Level Indianapolis Center
Tue 07:02:57 AM 36.9506 -83.1336 37° Northeast 436 502 37,000  Level Indianapolis Center
Tue 07:03:58 AM 37.0508 -83.0414 36° Northeast 440 506 37,000  Level Indianapolis Center
Tue 07:04:59 AM 37.1492 -82.9456 38° Northeast 440 506 37,000  Level Indianapolis Center
Tue 07:06:00 AM 37.2458 -82.8511 38° Northeast 438 504 37,000  Level Indianapolis Center
Tue 07:07:01 AM 37.3436 -82.7581 37° Northeast 439 505 37,000  Level Indianapolis Center
Tue 07:08:02 AM 37.4569 -82.6494 37° Northeast 438 504 37,000  Level Indianapolis Center
Tue 07:09:03 AM 37.5517 -82.5558 38° Northeast 433 498 37,000  Level Indianapolis Center
Tue 07:10:04 AM 37.6478 -82.4622 38° Northeast 436 502 37,000  Level Indianapolis Center
Tue 07:11:05 AM 37.7422 -82.3694 38° Northeast 430 495 37,000  Level Indianapolis Center
Tue 07:12:06 AM 37.8364 -82.2772 38° Northeast 428 493 37,000  Level Indianapolis Center
Tue 07:13:07 AM 37.9303 -82.1858 38° Northeast 426 490 37,000  Level Indianapolis Center
Tue 07:14:08 AM 38.0194 -82.0986 38° Northeast 425 489 37,000  Level Indianapolis Center
Tue 07:15:10 AM 38.1125 -82.0072 38° Northeast 422 486 37,000  Level Indianapolis Center
Tue 07:16:11 AM 38.2039 -81.9161 38° Northeast 419 482 37,000  Level Indianapolis Center
Tue 07:17:12 AM 38.2956 -81.8244 38° Northeast 419 482 37,000  Level Indianapolis Center
Tue 07:18:13 AM 38.3894 -81.7358 36° Northeast 420 483 37,000  Level Indianapolis Center
Tue 07:19:14 AM 38.5058 -81.6356 34° Northeast 421 484 37,000  Level Indianapolis Center
Tue 07:20:15 AM 38.6053 -81.5492 34° Northeast 421 484 37,000  Level Indianapolis Center
Tue 07:21:16 AM 38.7036 -81.4633 34° Northeast 425 489 37,000  Level Indianapolis Center
Tue 07:22:17 AM 38.7928 -81.3875 34° Northeast 429 494 37,000  Level Indianapolis Center
Tue 07:23:18 AM 38.8908 -81.3017 34° Northeast 426 490 37,000  Level Indianapolis Center
Tue 07:24:20 AM 38.9886 -81.2164 34° Northeast 425 489 37,000  Level Indianapolis Center
Tue 07:25:21 AM 39.0861 -81.1306 34° Northeast 423 487 37,000  Level Indianapolis Center
Tue 07:26:22 AM 39.2033 -81.0272 34° Northeast 426 490 37,000  Level Indianapolis Center
Tue 07:27:23 AM 39.3003 -80.9411 34° Northeast 424 488 37,000  Level Indianapolis Center
Tue 07:28:24 AM 39.3967 -80.8558 34° Northeast 420 483 37,000  Level Indianapolis Center
Tue 07:29:25 AM 39.4933 -80.7694 35° Northeast 422 486 37,000  Level Indianapolis Center
Tue 07:30:27 AM 39.5908 -80.6831 34° Northeast 424 488 37,000  Level Indianapolis Center
Tue 07:31:28 AM 39.6889 -80.5967 34° Northeast 426 490 37,000  Level Indianapolis Center
Tue 07:32:29 AM 39.7975 -80.5533 17° North 409 471 37,000  Level Indianapolis Center
Tue 07:33:36 AM 39.9233 -80.5156 13° North 404 465 37,000  Level Cleveland Center
Tue 07:34:36 AM 40.0339 -80.4772 15° North 404 465 37,000  Level Cleveland Center
Tue 07:35:36 AM 40.1442 -80.4419 14° North 404 465 37,000  Level Cleveland Center
Tue 07:36:36 AM 40.2567 -80.4036 15° North 404 465 37,000  Level Cleveland Center
Tue 07:37:36 AM 40.3672 -80.3678 14° North 409 471 37,000 -50 Level Cleveland Center
Tue 07:38:36 AM 40.4756 -80.3292 15° North 409 471 36,900 -600 Descending Cleveland Center
Tue 07:39:36 AM 40.5922 -80.2933 13° North 415 478 35,800 -950 Descending Cleveland Center
Tue 07:40:36 AM 40.7089 -80.2517 15° North 421 484 35,000 -400 Descending Cleveland Center
Tue 07:41:36 AM 40.8233 -80.2128 14° North 421 484 35,000 -250 Level Cleveland Center
Tue 07:42:36 AM 40.9503 -80.1433 22° Northeast 426 490 34,500 -500 Descending Cleveland Center
Tue 07:43:36 AM 41.0647 -80.0792 23° Northeast 438 504 34,000 -250 Descending Cleveland Center
Tue 07:44:36 AM 41.1789 -80.0175 22° Northeast 438 504 34,000  Level Cleveland Center
Tue 07:45:36 AM 41.2767 -79.9642 22° Northeast 432 497 34,000  Level Cleveland Center
Tue 07:46:36 AM 41.3889 -79.9022 22° Northeast 432 497 34,000  Level Cleveland Center
Tue 07:47:36 AM 41.5011 -79.8400 23° Northeast 432 497 34,000 -300 Level Cleveland Center
Tue 07:48:36 AM 41.6111 -79.7778 23° Northeast 432 497 33,400 -950 Descending Cleveland Center
Tue 07:49:36 AM 41.7253 -79.7122 23° Northeast 432 497 32,100 -1,300 Descending Cleveland Center
Tue 07:50:36 AM 41.8436 -79.6467 22° Northeast 441 507 30,800 -1,250 Descending Cleveland Center
Tue 07:51:36 AM 41.9578 -79.5808 23° Northeast 441 507 29,600 -1,250 Descending Cleveland Center
Tue 07:52:36 AM 42.0822 -79.5117 22° Northeast 454 522 28,300 -850 Descending Cleveland Center
Tue 07:53:36 AM 42.2044 -79.4422 23° Northeast 465 535 27,900 -800 Descending Cleveland Center
Tue 07:54:36 AM 42.3206 -79.3756 23° Northeast 465 535 26,700 -1,200 Descending Cleveland Center
Tue 07:55:36 AM 42.4344 -79.3089 23° Northeast 453 521 25,500 -1,250 Descending Cleveland Center
Tue 07:56:36 AM 42.5739 -79.2806 North 453 521 24,200 -1,250 Descending Cleveland Center
Tue 07:57:36 AM 42.7011 -79.2950 355° North 447 514 23,000 -1,200 Descending Cleveland Center
Tue 07:58:36 AM 42.8261 -79.3067 356° North 447 514 21,800 -950 Descending Cleveland Center
Tue 07:59:36 AM 42.9367 -79.3128 358° North 442 509 21,100 -1,650 Descending Cleveland Center
Tue 07:59:56 AM 42.9833 -79.2833 25° Northeast 440 506 19,600 -3,494 Descending Toronto Center
Tue 08:00:55 AM 43.0833 -79.3167 346° North 420 483 16,500 -2,622 Descending Toronto Center
Tue 08:01:55 AM 43.2000 -79.3333 354° North 400 460 14,400 -1,500 Descending Toronto Center
Tue 08:02:55 AM 43.3000 -79.3333 360° North 350 403 13,500 -1,250 Descending Toronto Center
Tue 08:03:55 AM 43.3667 -79.3833 331° Northwest 310 357 11,900 -1,736 Descending Toronto Center
Tue 08:04:56 AM 43.4500 -79.4333 336° Northwest 300 345 10,000 -1,450 Descending Toronto Center
Tue 08:05:55 AM 43.5167 -79.4667 340° North 290 334 9,000 -1,059 Descending Toronto Center
Tue 08:06:55 AM 43.5833 -79.5167 331° Northwest 260 299 7,900 -1,200 Descending Toronto Center
Tue 08:07:55 AM 43.6333 -79.4500 44° Northeast 260 299 6,600 -1,150 Descending Toronto Center
Tue 08:08:55 AM 43.6833 -79.3833 44° Northeast 250 288 5,600 -1,240 Descending Toronto Center
Tue 08:09:56 AM 43.7333 -79.3167 44° Northeast 240 276 4,100 -750 Descending Toronto Center
Tue 08:10:55 AM 43.7833 -79.3333 346° North 210 242 4,100 -151 Level Toronto Center
Tue 08:11:55 AM 43.7833 -79.4000 270° West 190 219 3,800 -550 Descending Toronto Center
Tue 08:12:55 AM 43.7500 -79.4500 227° Southwest 190 219 3,000 -893 Descending Toronto Center
Tue 08:13:56 AM 43.7167 -79.5000 227° Southwest 170 196 2,000 -850 Descending Toronto Center
Tue 08:14:55 AM 43.6833 -79.5333 216° Southwest 150 173 1,300 -706 Descending Toronto Center
Tue 08:15:55 AM 43.6667 -79.5833 245° Southwest 140 161 600 -347 Descending Toronto Center
Tue 08:16:56 AM 43.6500 -79.5833 180° South 40 46 600  Level Toronto Center
Tue 08:17:56 AM 43.6500 -79.6167 270° West 10 12 600  Level Toronto Center

Login

Don't have an account? Register now (free) for customized features, flight alerts, and more!